createdAt,value
2022-11-25T00:01:27.282Z,99.90
2022-11-25T00:03:56.830Z,99.90
2022-11-25T00:06:27.323Z,99.90
2022-11-25T00:08:58.982Z,99.90
2022-11-25T00:11:27.320Z,99.90
2022-11-25T00:13:57.853Z,99.90
2022-11-25T00:16:27.603Z,99.90
2022-11-25T00:18:57.848Z,99.90
2022-11-25T00:21:27.988Z,99.90
2022-11-25T00:23:58.066Z,99.90
2022-11-25T00:26:27.614Z,99.90
2022-11-25T00:28:59.864Z,99.90
2022-11-25T00:31:29.810Z,99.90
2022-11-25T00:33:58.385Z,99.90
2022-11-25T00:36:28.797Z,99.90
2022-11-25T00:38:58.605Z,99.90
2022-11-25T00:41:45.450Z,99.90
2022-11-25T00:44:36.296Z,99.90
2022-11-25T00:47:06.275Z,99.90
2022-11-25T00:49:34.731Z,99.90
2022-11-25T00:52:03.040Z,99.90
2022-11-25T00:54:31.239Z,99.90
2022-11-25T00:56:59.626Z,99.90
2022-11-25T00:59:29.855Z,99.90
2022-11-25T01:01:58.233Z,99.90
2022-11-25T01:04:26.493Z,99.90
2022-11-25T01:06:56.848Z,99.90
2022-11-25T01:09:25.234Z,99.90
2022-11-25T01:11:53.876Z,99.90
2022-11-25T01:14:22.711Z,99.90
2022-11-25T01:16:52.832Z,99.90
2022-11-25T01:19:21.580Z,99.90
2022-11-25T01:21:49.887Z,99.90
2022-11-25T01:24:18.701Z,99.90
2022-11-25T01:26:47.171Z,99.90
2022-11-25T01:29:16.931Z,99.90
2022-11-25T01:31:46.122Z,99.90
2022-11-25T01:34:17.694Z,99.90
2022-11-25T01:36:46.539Z,99.90
2022-11-25T01:39:18.394Z,99.90
2022-11-25T01:41:47.652Z,99.90
2022-11-25T01:44:17.306Z,99.90
2022-11-25T01:46:56.872Z,99.90
2022-11-25T01:49:31.009Z,99.90
2022-11-25T01:52:04.430Z,99.90
2022-11-25T01:54:37.852Z,99.90
2022-11-25T01:57:11.044Z,99.90
2022-11-25T01:59:43.959Z,99.90
2022-11-25T02:02:13.238Z,99.90
2022-11-25T02:04:44.324Z,99.90
2022-11-25T02:07:16.786Z,99.90
2022-11-25T02:09:46.977Z,99.90
2022-11-25T02:12:18.023Z,99.90
2022-11-25T02:14:48.112Z,99.90
2022-11-25T02:17:16.348Z,99.90
2022-11-25T02:19:59.356Z,99.90
2022-11-25T02:22:34.183Z,99.90
2022-11-25T02:25:11.323Z,99.90
2022-11-25T02:27:39.556Z,99.90
2022-11-25T02:30:09.459Z,99.90
2022-11-25T02:32:37.661Z,99.90
2022-11-25T02:35:26.886Z,99.90
2022-11-25T02:37:59.470Z,99.90
2022-11-25T02:40:29.867Z,99.90
2022-11-25T02:43:01.436Z,99.90
2022-11-25T02:45:40.715Z,99.90
2022-11-25T02:48:09.270Z,99.90
2022-11-25T02:50:37.605Z,99.90
2022-11-25T02:53:06.197Z,99.90
2022-11-25T02:55:35.957Z,99.90
2022-11-25T02:58:04.276Z,99.90
2022-11-25T03:00:32.572Z,99.90
2022-11-25T03:03:00.995Z,99.90
2022-11-25T03:05:29.456Z,99.90
2022-11-25T03:07:57.782Z,99.90
2022-11-25T03:10:26.362Z,99.90
2022-11-25T03:12:56.056Z,99.90
2022-11-25T03:15:24.612Z,99.90
2022-11-25T03:17:53.574Z,99.90
2022-11-25T03:20:22.287Z,99.90
2022-11-25T03:22:50.628Z,99.90
2022-11-25T03:25:19.386Z,99.90
2022-11-25T03:27:48.139Z,99.90
2022-11-25T03:30:19.215Z,99.90
2022-11-25T03:32:47.456Z,99.90
2022-11-25T03:35:16.797Z,99.90
2022-11-25T03:37:45.994Z,99.90
2022-11-25T03:40:16.243Z,99.90
2022-11-25T03:42:44.822Z,99.90
2022-11-25T03:45:15.107Z,99.90
2022-11-25T03:47:45.749Z,99.90
2022-11-25T03:50:15.736Z,99.90
2022-11-25T03:52:43.943Z,99.90
2022-11-25T03:55:13.237Z,99.90
2022-11-25T03:57:42.004Z,99.90
2022-11-25T04:00:11.604Z,99.90
2022-11-25T04:02:39.822Z,99.90
2022-11-25T04:05:10.112Z,99.90
2022-11-25T04:07:38.477Z,99.90
2022-11-25T04:10:08.029Z,99.90
2022-11-25T04:12:48.251Z,99.90
2022-11-25T04:15:17.449Z,99.90
2022-11-25T04:17:46.985Z,99.90
2022-11-25T04:20:17.269Z,99.90
2022-11-25T04:22:45.690Z,99.90
2022-11-25T04:25:14.251Z,99.90
2022-11-25T04:27:42.419Z,99.90
2022-11-25T04:30:11.425Z,99.90
2022-11-25T04:32:40.107Z,99.90
2022-11-25T04:35:08.985Z,99.90
2022-11-25T04:37:38.576Z,99.90
2022-11-25T04:40:09.136Z,99.90
2022-11-25T04:42:39.589Z,99.90
2022-11-25T04:45:25.655Z,99.90
2022-11-25T04:47:53.983Z,99.90
2022-11-25T04:50:24.761Z,99.90
2022-11-25T04:52:54.320Z,99.90
2022-11-25T04:55:22.462Z,99.90
2022-11-25T04:57:50.618Z,99.90
2022-11-25T05:00:19.012Z,99.90
2022-11-25T05:02:47.384Z,99.90
2022-11-25T05:05:16.509Z,99.90
2022-11-25T05:07:44.789Z,99.90
2022-11-25T05:10:14.664Z,99.90
2022-11-25T05:12:42.886Z,99.90
2022-11-25T05:15:12.118Z,99.90
2022-11-25T05:17:40.667Z,99.90
2022-11-25T05:20:09.899Z,99.90
2022-11-25T05:22:38.151Z,99.90
2022-11-25T05:25:07.237Z,99.90
2022-11-25T05:27:36.955Z,99.90
2022-11-25T05:30:05.951Z,99.90
2022-11-25T05:32:34.115Z,99.90
2022-11-25T05:35:02.263Z,99.90
2022-11-25T05:37:30.428Z,99.90
2022-11-25T05:39:58.592Z,99.90
2022-11-25T05:42:26.764Z,99.90
2022-11-25T05:44:56.329Z,99.90
2022-11-25T05:47:24.519Z,99.90
2022-11-25T05:49:52.706Z,99.90
2022-11-25T05:52:20.868Z,99.90
2022-11-25T05:54:51.257Z,99.90
2022-11-25T05:57:22.682Z,99.90
2022-11-25T05:59:50.857Z,99.90
2022-11-25T06:02:20.469Z,99.90
2022-11-25T06:04:48.765Z,99.90
2022-11-25T06:07:16.991Z,99.90
2022-11-25T06:09:45.186Z,99.90
2022-11-25T06:12:13.419Z,99.90
2022-11-25T06:14:41.575Z,99.90
2022-11-25T06:17:09.730Z,99.90
2022-11-25T06:19:39.324Z,99.90
2022-11-25T06:22:07.507Z,99.90
2022-11-25T06:24:35.819Z,99.90
2022-11-25T06:27:05.010Z,99.90
2022-11-25T06:29:35.688Z,99.90
2022-11-25T06:32:03.931Z,99.90
2022-11-25T06:34:32.194Z,99.90
2022-11-25T06:37:01.771Z,99.90
2022-11-25T06:39:29.967Z,99.90
2022-11-25T06:41:58.138Z,99.90
2022-11-25T06:44:26.395Z,99.90
2022-11-25T06:46:54.683Z,99.90
2022-11-25T06:49:22.900Z,99.90
2022-11-25T06:51:51.227Z,99.90
2022-11-25T06:54:20.804Z,99.90
2022-11-25T06:56:51.755Z,99.90
2022-11-25T06:59:20.190Z,99.90
2022-11-25T07:01:48.746Z,99.90
2022-11-25T07:04:17.528Z,99.90
2022-11-25T07:06:45.702Z,99.90
2022-11-25T07:09:13.868Z,99.90
2022-11-25T07:11:43.505Z,99.90
2022-11-25T07:14:14.118Z,99.90
2022-11-25T07:16:44.504Z,99.90
2022-11-25T07:19:14.348Z,99.90
2022-11-25T07:21:43.488Z,99.90
2022-11-25T07:24:12.642Z,99.90
2022-11-25T07:26:42.149Z,99.90
2022-11-25T07:29:36.434Z,99.90
2022-11-25T07:32:08.747Z,99.90
2022-11-25T07:34:38.669Z,99.90
2022-11-25T07:37:06.930Z,99.90
2022-11-25T07:39:35.611Z,99.90
2022-11-25T07:42:04.156Z,99.90
2022-11-25T07:44:33.947Z,99.90
2022-11-25T07:47:02.211Z,99.90
2022-11-25T07:49:30.600Z,99.90
2022-11-25T07:52:01.694Z,99.90
2022-11-25T07:54:30.165Z,99.90
2022-11-25T07:56:58.448Z,99.90
2022-11-25T07:59:26.867Z,99.90
2022-11-25T08:01:57.610Z,99.90
2022-11-25T08:04:26.193Z,99.90
2022-11-25T08:06:54.719Z,99.90
2022-11-25T08:09:24.521Z,99.90
2022-11-25T08:11:53.045Z,99.90
2022-11-25T08:14:21.886Z,99.90
2022-11-25T08:16:50.233Z,99.90
2022-11-25T08:19:20.202Z,99.90
2022-11-25T08:21:48.911Z,99.90
2022-11-25T08:24:19.367Z,99.90
2022-11-25T08:26:48.496Z,99.90
2022-11-25T08:29:18.525Z,99.90
2022-11-25T08:31:47.151Z,99.90
2022-11-25T08:34:21.641Z,99.90
2022-11-25T08:36:49.950Z,99.90
2022-11-25T08:42:08.243Z,99.90
2022-11-25T08:44:37.198Z,99.90
2022-11-25T08:47:05.723Z,99.90
2022-11-25T08:49:40.795Z,99.90
2022-11-25T08:52:10.215Z,99.90
2022-11-25T08:54:38.454Z,99.90
2022-11-25T08:57:06.657Z,99.90
2022-11-25T08:59:35.325Z,99.90
2022-11-25T09:02:03.993Z,99.90
2022-11-25T09:04:32.378Z,99.90
2022-11-25T09:07:02.156Z,99.90
2022-11-25T09:09:30.357Z,99.90
2022-11-25T09:11:58.648Z,99.90
2022-11-25T09:14:26.921Z,99.90
2022-11-25T09:16:57.070Z,99.90
2022-11-25T09:19:25.340Z,99.90
2022-11-25T09:21:53.505Z,96.50
2022-11-25T09:24:23.120Z,98.30
2022-11-25T09:26:51.286Z,99.00
2022-11-25T09:29:19.463Z,99.90
2022-11-25T09:31:53.002Z,99.60
2022-11-25T09:34:22.781Z,99.90
2022-11-25T09:36:51.578Z,99.90
2022-11-25T09:39:19.746Z,99.90
2022-11-25T09:42:17.228Z,99.90
2022-11-25T09:45:19.739Z,99.90
2022-11-25T09:47:57.989Z,99.90
2022-11-25T09:50:42.395Z,99.90
2022-11-25T09:53:24.774Z,99.90
2022-11-25T09:56:01.322Z,99.90
2022-11-25T09:58:36.679Z,99.90
2022-11-25T10:01:08.472Z,99.90
2022-11-25T10:03:42.365Z,99.90
2022-11-25T10:06:16.281Z,99.90
2022-11-25T10:08:48.207Z,99.90
2022-11-25T10:11:27.568Z,99.90
2022-11-25T10:14:01.789Z,99.90
2022-11-25T10:16:50.102Z,99.90
2022-11-25T10:19:38.349Z,99.90
2022-11-25T10:22:20.599Z,99.90
2022-11-25T10:24:49.352Z,99.90
2022-11-25T10:27:22.926Z,99.90
2022-11-25T10:30:02.969Z,99.90
2022-11-25T10:32:39.995Z,99.90
2022-11-25T10:35:18.396Z,99.90
2022-11-25T10:37:48.494Z,99.90
2022-11-25T10:40:18.544Z,99.90
2022-11-25T10:42:46.842Z,99.90
2022-11-25T10:45:16.659Z,99.90
2022-11-25T10:48:08.680Z,99.90
2022-11-25T10:50:48.386Z,99.90
2022-11-25T10:53:21.748Z,99.90
2022-11-25T10:56:00.757Z,99.90
2022-11-25T10:58:32.647Z,99.90
2022-11-25T11:01:17.496Z,99.90
2022-11-25T11:03:48.107Z,99.90
2022-11-25T11:06:32.301Z,99.90
2022-11-25T11:09:00.660Z,99.90
2022-11-25T11:11:29.409Z,99.90
2022-11-25T11:14:14.988Z,99.90
2022-11-25T11:16:53.185Z,99.90
2022-11-25T11:19:25.707Z,99.90
2022-11-25T11:21:54.379Z,99.90
2022-11-25T11:24:28.441Z,99.90
2022-11-25T11:27:05.067Z,99.90
2022-11-25T11:29:33.425Z,99.90
2022-11-25T11:32:06.719Z,99.90
2022-11-25T11:34:53.091Z,99.90
2022-11-25T11:37:34.545Z,99.90
2022-11-25T11:40:23.087Z,99.90
2022-11-25T11:43:05.924Z,99.90
2022-11-25T11:45:55.149Z,99.90
2022-11-25T11:48:29.214Z,99.90
2022-11-25T11:51:08.925Z,99.90
2022-11-25T11:53:46.309Z,99.90
2022-11-25T11:56:34.837Z,99.90
2022-11-25T11:59:30.132Z,99.90
2022-11-25T12:02:17.235Z,99.90
2022-11-25T12:04:53.327Z,99.90
2022-11-25T12:07:28.714Z,99.90
2022-11-25T12:10:00.579Z,99.90
2022-11-25T12:12:36.625Z,99.90
2022-11-25T12:15:13.799Z,99.90
2022-11-25T12:17:49.175Z,99.90
2022-11-25T12:20:26.803Z,99.90
2022-11-25T12:23:00.762Z,99.90
2022-11-25T12:25:35.455Z,99.90
2022-11-25T12:28:10.322Z,99.90
2022-11-25T12:30:46.119Z,99.60
2022-11-25T12:33:21.218Z,98.00
2022-11-25T12:35:59.840Z,98.30
2022-11-25T12:38:37.547Z,96.20
2022-11-25T12:41:17.407Z,97.70
2022-11-25T12:43:50.681Z,97.00
2022-11-25T12:46:28.849Z,96.70
2022-11-25T12:48:59.260Z,97.40
2022-11-25T12:51:58.736Z,95.60
2022-11-25T12:54:44.520Z,96.00
2022-11-25T12:57:35.580Z,97.90
2022-11-25T13:03:37.189Z,98.20
2022-11-25T13:06:32.215Z,99.90
2022-11-25T13:09:11.757Z,99.90
2022-11-25T13:12:06.518Z,99.90
2022-11-25T13:15:14.488Z,99.90
2022-11-25T13:17:45.673Z,99.90
2022-11-25T13:20:44.414Z,99.90
2022-11-25T13:23:25.756Z,99.90
2022-11-25T13:26:36.126Z,99.90
2022-11-25T13:29:28.876Z,99.90
2022-11-25T13:31:59.746Z,99.90
2022-11-25T13:34:30.238Z,99.90
2022-11-25T13:36:59.678Z,99.90
2022-11-25T13:39:33.141Z,99.90
2022-11-25T13:42:06.312Z,99.90
2022-11-25T13:44:36.766Z,99.90
2022-11-25T13:47:31.974Z,99.90
2022-11-25T13:50:03.381Z,99.90
2022-11-25T13:52:44.382Z,99.90
2022-11-25T13:55:26.430Z,99.90
2022-11-25T13:58:16.684Z,99.90
2022-11-25T14:01:03.663Z,99.90
2022-11-25T14:04:05.646Z,99.90
2022-11-25T14:06:53.119Z,99.90
2022-11-25T14:09:39.488Z,99.90
2022-11-25T14:12:40.310Z,99.90
2022-11-25T14:15:38.013Z,99.90
2022-11-25T14:21:59.687Z,99.90
2022-11-25T14:24:37.017Z,99.90
2022-11-25T14:27:07.040Z,99.90
2022-11-25T14:29:41.543Z,99.90
2022-11-25T14:32:17.040Z,99.90
2022-11-25T14:34:49.090Z,99.90
2022-11-25T14:37:22.709Z,99.90
2022-11-25T14:39:56.972Z,99.90
2022-11-25T14:42:29.146Z,99.90
2022-11-25T14:44:58.445Z,99.90
2022-11-25T14:47:33.268Z,99.90
2022-11-25T14:50:34.217Z,99.90
2022-11-25T14:52:53.110Z,99.90
2022-11-25T14:55:32.432Z,99.90
2022-11-25T14:58:00.759Z,99.90
2022-11-25T15:00:28.934Z,99.90
2022-11-25T15:03:00.154Z,99.90
2022-11-25T15:05:33.137Z,99.90
2022-11-25T15:08:05.575Z,99.90
2022-11-25T15:10:46.035Z,99.90
2022-11-25T15:13:31.582Z,99.90
2022-11-25T15:16:06.204Z,99.90
2022-11-25T15:18:37.055Z,99.90
2022-11-25T15:21:06.426Z,99.90
2022-11-25T15:23:39.047Z,99.90
2022-11-25T15:26:19.266Z,99.90
2022-11-25T15:28:48.299Z,99.90
2022-11-25T15:31:20.467Z,99.90
2022-11-25T15:33:54.872Z,99.90
2022-11-25T15:36:24.283Z,99.90
2022-11-25T15:38:53.444Z,99.90
2022-11-25T15:41:31.636Z,99.90
2022-11-25T15:44:02.256Z,99.90
2022-11-25T15:46:32.259Z,99.90
2022-11-25T15:49:05.002Z,99.90
2022-11-25T15:51:39.395Z,99.90
2022-11-25T15:54:16.631Z,99.90
2022-11-25T15:56:49.004Z,99.90
2022-11-25T15:59:56.722Z,99.90
2022-11-25T16:02:37.791Z,99.90
2022-11-25T16:05:27.906Z,99.90
2022-11-25T16:08:13.460Z,99.90
2022-11-25T16:10:52.825Z,99.90
2022-11-25T16:13:37.666Z,99.90
2022-11-25T16:16:19.809Z,99.90
2022-11-25T16:18:57.096Z,99.90
2022-11-25T16:21:30.517Z,99.90
2022-11-25T16:24:11.159Z,99.90
2022-11-25T16:26:41.716Z,99.90
2022-11-25T16:29:16.880Z,99.90
2022-11-25T16:31:45.213Z,99.90
2022-11-25T16:34:16.354Z,99.90
2022-11-25T16:36:46.698Z,99.90
2022-11-25T16:39:15.268Z,99.90
2022-11-25T16:41:46.309Z,99.90
2022-11-25T16:44:19.540Z,99.90
2022-11-25T16:46:48.076Z,99.90
2022-11-25T16:49:18.642Z,99.90
2022-11-25T16:51:50.539Z,99.90
2022-11-25T16:54:20.260Z,99.90
2022-11-25T16:56:51.508Z,99.90
2022-11-25T16:59:25.233Z,99.90
2022-11-25T17:01:54.480Z,99.90
2022-11-25T17:04:23.545Z,99.90
2022-11-25T17:07:24.166Z,99.90
2022-11-25T17:09:43.900Z,99.90
2022-11-25T17:12:17.472Z,99.90
2022-11-25T17:14:48.073Z,99.90
2022-11-25T17:17:24.610Z,99.90
2022-11-25T17:19:53.477Z,99.90
2022-11-25T17:22:24.880Z,99.90
2022-11-25T17:24:53.872Z,99.90
2022-11-25T17:27:26.139Z,99.90
2022-11-25T17:29:55.150Z,99.90
2022-11-25T17:32:23.761Z,99.90
2022-11-25T17:34:52.127Z,99.90
2022-11-25T17:37:23.876Z,99.90
2022-11-25T17:39:52.785Z,99.90
2022-11-25T17:42:24.987Z,99.90
2022-11-25T17:44:54.460Z,99.90
2022-11-25T17:47:23.058Z,99.90
2022-11-25T17:49:52.095Z,99.90
2022-11-25T17:52:20.398Z,99.90
2022-11-25T17:54:50.018Z,99.90
2022-11-25T17:57:22.691Z,99.90
2022-11-25T17:59:51.104Z,99.90
2022-11-25T18:02:21.138Z,99.90
2022-11-25T18:04:49.808Z,99.90
2022-11-25T18:07:18.425Z,99.90
2022-11-25T18:09:46.701Z,99.90
2022-11-25T18:12:20.733Z,99.90
2022-11-25T18:14:49.172Z,99.90
2022-11-25T18:17:20.250Z,99.90
2022-11-25T18:19:54.500Z,99.90
2022-11-25T18:22:24.653Z,99.90
2022-11-25T18:24:53.996Z,99.90
2022-11-25T18:27:27.012Z,99.90
2022-11-25T18:29:56.484Z,99.90
2022-11-25T18:32:25.743Z,99.90
2022-11-25T18:34:54.155Z,99.90
2022-11-25T18:37:22.796Z,99.90
2022-11-25T18:39:51.048Z,99.90
2022-11-25T18:42:26.677Z,99.90
2022-11-25T18:44:56.266Z,99.90
2022-11-25T18:47:24.864Z,99.90
2022-11-25T18:52:21.572Z,99.90
2022-11-25T18:54:51.046Z,99.90
2022-11-25T18:57:20.625Z,99.90
2022-11-25T19:00:10.700Z,99.90
2022-11-25T19:02:40.197Z,99.90
2022-11-25T19:05:17.908Z,99.90
2022-11-25T19:07:47.262Z,99.90
2022-11-25T19:10:16.430Z,99.90
2022-11-25T19:12:49.241Z,99.90
2022-11-25T19:15:23.666Z,99.90
2022-11-25T19:17:56.672Z,99.90
2022-11-25T19:45:29.529Z,99.90
2022-11-25T19:47:58.858Z,99.90
2022-11-25T19:50:28.812Z,99.90
2022-11-25T19:55:32.547Z,99.90
2022-11-25T19:58:01.048Z,99.90
2022-11-25T20:00:30.994Z,99.90
2022-11-25T20:02:59.343Z,99.90
2022-11-25T20:10:44.739Z,99.90
2022-11-25T20:13:13.031Z,99.90
2022-11-25T20:15:43.615Z,99.90
2022-11-25T20:18:18.417Z,99.90
2022-11-25T20:20:48.242Z,99.90
2022-11-25T20:23:21.584Z,99.90
2022-11-25T20:25:50.791Z,99.90
2022-11-25T20:28:21.184Z,99.90
2022-11-25T20:30:51.700Z,99.90
2022-11-25T20:33:24.276Z,99.90
2022-11-25T20:36:04.890Z,99.90
2022-11-25T20:38:36.131Z,99.90
2022-11-25T20:41:06.654Z,99.90
2022-11-25T20:43:39.155Z,99.90
2022-11-25T20:46:17.609Z,99.90
2022-11-25T20:48:48.815Z,99.90
2022-11-25T20:51:20.038Z,99.90
2022-11-25T20:53:50.663Z,99.90
2022-11-25T20:56:20.717Z,99.90
2022-11-25T20:58:49.002Z,99.90
2022-11-25T21:01:20.046Z,99.90
2022-11-25T21:03:49.529Z,99.90
2022-11-25T21:06:22.546Z,99.90
2022-11-25T21:08:52.894Z,99.90
2022-11-25T21:11:22.739Z,99.90
2022-11-25T21:13:53.562Z,99.90
2022-11-25T21:16:25.685Z,99.90
2022-11-25T21:18:53.702Z,99.90
2022-11-25T21:21:29.823Z,99.90
2022-11-25T21:23:58.655Z,99.90
2022-11-25T21:26:27.836Z,99.90
2022-11-25T21:28:56.525Z,99.90
2022-11-25T21:31:27.161Z,99.90
2022-11-25T21:33:59.836Z,99.90
2022-11-25T21:36:30.410Z,99.90
2022-11-25T21:39:05.168Z,99.90
2022-11-25T21:41:33.786Z,99.90
2022-11-25T21:44:02.408Z,99.90
2022-11-25T21:46:32.112Z,99.90
2022-11-25T21:49:00.417Z,99.90
2022-11-25T21:51:28.629Z,99.90
2022-11-25T21:53:56.941Z,99.90
2022-11-25T21:56:28.329Z,99.90
2022-11-25T21:58:57.567Z,99.90
2022-11-25T22:01:25.849Z,99.90
2022-11-25T22:11:34.056Z,99.90
2022-11-25T22:14:05.814Z,99.90
2022-11-25T22:16:36.292Z,99.90
2022-11-25T22:19:05.559Z,99.90
2022-11-25T22:21:33.806Z,99.90
2022-11-25T22:24:02.055Z,99.90
2022-11-25T22:26:33.947Z,99.90
2022-11-25T22:29:03.453Z,99.90
2022-11-25T22:31:31.709Z,99.90
2022-11-25T22:34:00.026Z,99.90
2022-11-25T22:36:33.964Z,99.90
2022-11-25T22:39:14.130Z,99.90
2022-11-25T22:41:44.861Z,99.90
2022-11-25T22:44:20.875Z,99.90
2022-11-25T22:46:49.805Z,99.90
2022-11-25T22:49:44.178Z,99.90
2022-11-25T22:52:20.072Z,99.90
2022-11-25T22:54:48.587Z,99.90
2022-11-25T22:57:18.403Z,99.90
2022-11-25T22:59:46.674Z,99.90
2022-11-25T23:02:20.764Z,99.90
2022-11-25T23:04:53.011Z,99.90
2022-11-25T23:07:21.926Z,99.90
2022-11-25T23:09:50.800Z,99.90
2022-11-25T23:12:20.895Z,99.90
2022-11-25T23:14:49.337Z,99.90
2022-11-25T23:17:21.132Z,99.90
2022-11-25T23:19:49.274Z,99.90
2022-11-25T23:22:18.232Z,99.90
2022-11-25T23:24:48.147Z,99.90
2022-11-25T23:27:17.020Z,99.90
2022-11-25T23:29:46.612Z,99.90
2022-11-25T23:32:18.701Z,99.90
2022-11-25T23:34:47.356Z,99.90
2022-11-25T23:37:15.791Z,99.90
2022-11-25T23:39:45.067Z,99.90
2022-11-25T23:42:18.008Z,99.90
2022-11-25T23:44:47.765Z,99.90
2022-11-25T23:47:19.738Z,99.90
2022-11-25T23:49:50.574Z,99.90
2022-11-25T23:52:22.568Z,99.90
2022-11-25T23:54:52.054Z,99.90
2022-11-25T23:57:22.164Z,99.90
2022-11-25T23:59:52.598Z,99.90
